createdAt,value
2022-07-26T00:00:33.475Z,100546.55
2022-07-26T00:01:43.127Z,100542.38
2022-07-26T00:02:47.896Z,100541.60
2022-07-26T00:03:50.596Z,100542.17
2022-07-26T00:04:52.451Z,100545.91
2022-07-26T00:05:53.853Z,100539.65
2022-07-26T00:06:55.362Z,100540.28
2022-07-26T00:08:09.930Z,100534.95
2022-07-26T00:09:11.978Z,100534.02
2022-07-26T00:10:14.054Z,100532.38
2022-07-26T00:11:15.499Z,100531.29
2022-07-26T00:12:16.928Z,100526.19
2022-07-26T00:13:19.961Z,100527.21
2022-07-26T00:14:21.657Z,100524.25
2022-07-26T00:15:23.249Z,100522.52
2022-07-26T00:16:24.937Z,100522.94
2022-07-26T00:17:26.483Z,100519.30
2022-07-26T00:18:28.181Z,100518.80
2022-07-26T00:19:29.642Z,100515.18
2022-07-26T00:20:31.552Z,100513.93
2022-07-26T00:21:36.201Z,100510.69
2022-07-26T00:22:39.143Z,100505.66
2022-07-26T00:23:40.622Z,100510.08
2022-07-26T00:24:42.099Z,100512.58
2022-07-26T00:25:43.603Z,100516.73
2022-07-26T00:26:44.986Z,100516.84
2022-07-26T00:27:46.467Z,100512.85
2022-07-26T00:28:47.882Z,100513.77
2022-07-26T00:29:49.315Z,100512.45
2022-07-26T00:30:51.009Z,100512.13
2022-07-26T00:31:52.673Z,100517.37
2022-07-26T00:32:54.351Z,100516.27
2022-07-26T00:33:55.844Z,100517.48
2022-07-26T00:34:57.292Z,100517.42
2022-07-26T00:35:58.884Z,100515.95
2022-07-26T00:37:00.545Z,100510.86
2022-07-26T00:38:02.013Z,100510.80
2022-07-26T00:39:03.398Z,100510.58
2022-07-26T00:40:05.697Z,100503.91
2022-07-26T00:41:10.561Z,100502.48
2022-07-26T00:42:13.426Z,100498.56
2022-07-26T00:43:14.871Z,100502.94
2022-07-26T00:44:16.951Z,100505.13
2022-07-26T00:45:18.429Z,100511.09
2022-07-26T00:46:19.989Z,100507.70
2022-07-26T00:47:21.662Z,100512.85
2022-07-26T00:48:23.321Z,100516.52
2022-07-26T00:49:24.844Z,100518.21
2022-07-26T00:50:26.351Z,100519.80
2022-07-26T00:51:28.641Z,100510.35
2022-07-26T00:52:30.264Z,100507.52
2022-07-26T00:53:31.759Z,100507.45
2022-07-26T00:54:33.215Z,100503.84
2022-07-26T00:55:34.716Z,100509.98
2022-07-26T00:56:37.218Z,100512.71
2022-07-26T00:57:39.123Z,100514.41
2022-07-26T00:58:41.431Z,100521.08
2022-07-26T00:59:45.943Z,100519.66
2022-07-26T01:00:47.569Z,100516.98
2022-07-26T01:01:49.466Z,100517.63
2022-07-26T01:02:51.130Z,100516.92
2022-07-26T01:03:53.418Z,100516.39
2022-07-26T01:04:54.832Z,100507.86
2022-07-26T01:05:56.303Z,100507.48
2022-07-26T01:06:58.113Z,100506.77
2022-07-26T01:07:59.959Z,100512.17
2022-07-26T01:09:02.686Z,100508.86
2022-07-26T01:10:05.359Z,100503.23
2022-07-26T01:11:06.924Z,100502.59
2022-07-26T01:12:08.750Z,100499.76
2022-07-26T01:13:10.149Z,100502.10
2022-07-26T01:14:11.723Z,100502.97
2022-07-26T01:15:14.035Z,100501.94
2022-07-26T01:16:16.669Z,100504.79
2022-07-26T01:17:18.316Z,100501.19
2022-07-26T01:18:19.866Z,100503.98
2022-07-26T01:19:21.503Z,100500.48
2022-07-26T01:20:22.944Z,100500.92
2022-07-26T01:21:30.988Z,100503.11
2022-07-26T01:22:32.614Z,100501.80
2022-07-26T01:23:34.126Z,100505.77
2022-07-26T01:24:35.626Z,100505.23
2022-07-26T01:25:43.700Z,100506.06
2022-07-26T01:26:47.515Z,100503.01
2022-07-26T01:27:49.394Z,100503.40
2022-07-26T01:28:51.098Z,100497.17
2022-07-26T01:29:52.888Z,100493.08
2022-07-26T01:32:21.864Z,100487.30
2022-07-26T01:33:27.403Z,100486.73
2022-07-26T01:34:29.071Z,100481.99
2022-07-26T01:35:30.730Z,100478.89
2022-07-26T01:36:32.305Z,100478.56
2022-07-26T01:37:33.951Z,100480.77
2022-07-26T01:38:35.519Z,100478.96
2022-07-26T01:39:37.177Z,100477.35
2022-07-26T01:40:38.747Z,100477.00
2022-07-26T01:41:40.427Z,100478.05
2022-07-26T01:42:42.179Z,100478.82
2022-07-26T01:43:43.928Z,100475.88
2022-07-26T01:44:45.489Z,100474.91
2022-07-26T01:45:47.214Z,100475.95
2022-07-26T01:46:48.965Z,100474.66
2022-07-26T01:47:50.452Z,100474.23
2022-07-26T01:48:52.173Z,100476.91
2022-07-26T01:49:53.794Z,100474.86
2022-07-26T01:50:55.377Z,100471.38
2022-07-26T01:51:56.910Z,100473.85
2022-07-26T01:52:58.542Z,100472.44
2022-07-26T01:54:00.766Z,100470.10
2022-07-26T01:55:02.710Z,100475.02
2022-07-26T01:56:04.418Z,100476.13
2022-07-26T01:57:05.949Z,100475.64
2022-07-26T01:58:07.481Z,100476.30
2022-07-26T01:59:09.130Z,100477.14
2022-07-26T02:00:11.067Z,100476.73
2022-07-26T02:01:12.802Z,100478.60
2022-07-26T02:02:14.430Z,100490.13
2022-07-26T02:03:16.183Z,100487.90
2022-07-26T02:04:38.159Z,100484.25
2022-07-26T02:05:39.690Z,100485.84
2022-07-26T02:06:41.214Z,100479.74
2022-07-26T02:07:44.632Z,100476.11
2022-07-26T02:08:46.427Z,100482.33
2022-07-26T02:09:48.314Z,100483.88
2022-07-26T02:11:03.372Z,100484.77
2022-07-26T02:12:05.773Z,100488.87
2022-07-26T02:13:07.823Z,100489.20
2022-07-26T02:14:10.902Z,100487.66
2022-07-26T02:15:13.628Z,100477.71
2022-07-26T02:16:15.238Z,100477.55
2022-07-26T02:17:16.915Z,100476.52
2022-07-26T02:18:18.547Z,100472.70
2022-07-26T02:19:20.287Z,100471.66
2022-07-26T02:20:22.101Z,100470.56
2022-07-26T02:21:23.576Z,100472.27
2022-07-26T02:22:25.163Z,100475.98
2022-07-26T02:23:28.526Z,100473.08
2022-07-26T02:24:30.767Z,100464.67
2022-07-26T02:25:32.498Z,100464.90
2022-07-26T02:26:34.047Z,100464.64
2022-07-26T02:27:35.643Z,100462.41
2022-07-26T02:28:54.547Z,100459.09
2022-07-26T02:30:21.551Z,100454.92
2022-07-26T02:31:23.271Z,100460.13
2022-07-26T02:32:33.818Z,100461.70
2022-07-26T02:33:35.465Z,100470.72
2022-07-26T02:34:37.047Z,100472.70
2022-07-26T02:35:38.771Z,100477.13
2022-07-26T02:36:40.441Z,100475.66
2022-07-26T02:37:43.502Z,100476.26
2022-07-26T02:38:45.492Z,100481.76
2022-07-26T02:39:47.048Z,100485.04
2022-07-26T02:40:49.870Z,100489.63
2022-07-26T02:41:51.436Z,100492.76
2022-07-26T02:42:53.017Z,100496.86
2022-07-26T02:43:54.642Z,100497.42
2022-07-26T02:44:56.143Z,100501.46
2022-07-26T02:46:01.749Z,100501.85
2022-07-26T02:47:04.377Z,100507.38
2022-07-26T02:48:06.461Z,100511.95
2022-07-26T02:49:08.813Z,100516.31
2022-07-26T02:50:10.494Z,100518.02
2022-07-26T02:51:12.055Z,100520.52
2022-07-26T02:52:13.707Z,100521.23
2022-07-26T02:53:15.244Z,100520.47
2022-07-26T02:54:16.722Z,100521.88
2022-07-26T02:55:19.503Z,100521.65
2022-07-26T02:56:21.043Z,100523.27
2022-07-26T02:57:22.986Z,100522.13
2022-07-26T02:58:26.222Z,100516.89
2022-07-26T02:59:27.802Z,100518.95
2022-07-26T03:00:29.818Z,100522.16
2022-07-26T03:01:31.575Z,100523.80
2022-07-26T03:02:33.335Z,100528.83
2022-07-26T03:03:36.731Z,100529.70
2022-07-26T03:04:39.801Z,100529.59
2022-07-26T03:05:41.345Z,100530.61
2022-07-26T03:06:42.895Z,100532.74
2022-07-26T03:07:44.475Z,100535.52
2022-07-26T03:08:46.857Z,100533.39
2022-07-26T03:09:48.369Z,100534.11
2022-07-26T03:10:49.907Z,100530.46
2022-07-26T03:11:51.786Z,100531.40
2022-07-26T03:12:53.450Z,100530.20
2022-07-26T03:13:54.927Z,100528.35
2022-07-26T03:14:56.453Z,100523.11
2022-07-26T03:15:58.014Z,100520.31
2022-07-26T03:16:59.728Z,100517.73
2022-07-26T03:18:01.434Z,100515.77
2022-07-26T03:19:02.973Z,100520.27
2022-07-26T03:20:05.009Z,100523.16
2022-07-26T03:21:06.674Z,100526.45
2022-07-26T03:22:08.301Z,100533.20
2022-07-26T03:23:09.919Z,100533.41
2022-07-26T03:24:11.755Z,100534.40
2022-07-26T03:25:13.662Z,100541.10
2022-07-26T03:26:15.287Z,100538.44
2022-07-26T03:27:16.853Z,100542.59
2022-07-26T03:28:19.740Z,100542.85
2022-07-26T03:29:21.420Z,100540.50
2022-07-26T03:30:24.702Z,100545.64
2022-07-26T03:31:28.126Z,100557.17
2022-07-26T03:32:29.802Z,100562.98
2022-07-26T03:33:31.547Z,100570.38
2022-07-26T03:34:33.265Z,100572.58
2022-07-26T03:35:36.481Z,100568.71
2022-07-26T03:36:38.311Z,100559.27
2022-07-26T03:37:45.963Z,100558.52
2022-07-26T03:38:48.504Z,100562.94
2022-07-26T03:39:50.051Z,100565.17
2022-07-26T03:40:51.748Z,100567.09
2022-07-26T03:41:53.266Z,100579.06
2022-07-26T03:42:54.869Z,100585.94
2022-07-26T03:43:56.803Z,100591.94
2022-07-26T03:44:58.320Z,100582.94
2022-07-26T03:45:59.852Z,100579.27
2022-07-26T03:47:01.593Z,100575.46
2022-07-26T03:48:03.238Z,100572.86
2022-07-26T03:49:04.947Z,100576.94
2022-07-26T03:50:06.988Z,100583.80
2022-07-26T03:51:08.661Z,100588.63
2022-07-26T03:52:10.343Z,100594.29
2022-07-26T03:53:11.977Z,100597.36
2022-07-26T03:54:13.615Z,100600.73
2022-07-26T03:55:33.848Z,100600.22
2022-07-26T03:56:35.655Z,100586.16
2022-07-26T03:57:37.195Z,100583.25
2022-07-26T03:58:38.820Z,100583.81
2022-07-26T03:59:40.872Z,100584.19
2022-07-26T04:00:42.807Z,100588.98
2022-07-26T04:01:44.975Z,100591.80
2022-07-26T04:02:46.601Z,100590.08
2022-07-26T04:03:48.221Z,100583.45
2022-07-26T04:04:49.838Z,100581.92
2022-07-26T04:05:52.569Z,100580.63
2022-07-26T04:06:55.949Z,100576.27
2022-07-26T04:07:57.851Z,100578.13
2022-07-26T04:09:00.767Z,100582.48
2022-07-26T04:10:02.561Z,100579.66
2022-07-26T04:11:04.286Z,100579.20
2022-07-26T04:12:05.889Z,100578.83
2022-07-26T04:13:07.452Z,100577.40
2022-07-26T04:14:09.910Z,100578.52
2022-07-26T04:15:11.903Z,100576.90
2022-07-26T04:16:13.796Z,100577.16
2022-07-26T04:17:15.394Z,100579.23
2022-07-26T04:18:17.167Z,100579.02
2022-07-26T04:19:18.760Z,100581.54
2022-07-26T04:20:20.650Z,100585.84
2022-07-26T04:21:23.321Z,100587.55
2022-07-26T04:22:24.849Z,100589.13
2022-07-26T04:23:26.446Z,100587.10
2022-07-26T04:24:28.066Z,100583.71
2022-07-26T04:25:40.970Z,100579.46
2022-07-26T04:26:43.133Z,100572.45
2022-07-26T04:27:44.846Z,100566.21
2022-07-26T04:28:46.492Z,100567.05
2022-07-26T04:29:48.562Z,100567.22
2022-07-26T04:30:50.326Z,100562.96
2022-07-26T04:31:52.000Z,100558.70
2022-07-26T04:32:53.541Z,100561.04
2022-07-26T04:33:55.148Z,100559.58
2022-07-26T04:34:56.984Z,100566.00
2022-07-26T04:35:58.842Z,100572.88
2022-07-26T04:37:00.476Z,100577.62
2022-07-26T04:38:03.453Z,100576.13
2022-07-26T04:39:05.021Z,100576.76
2022-07-26T04:40:07.654Z,100587.55
2022-07-26T04:41:09.431Z,100597.35
2022-07-26T04:42:11.277Z,100605.62
2022-07-26T04:43:15.762Z,100610.94
2022-07-26T04:44:17.678Z,100611.20
2022-07-26T04:45:19.834Z,100612.08
2022-07-26T04:46:21.678Z,100610.28
2022-07-26T04:47:23.502Z,100606.67
2022-07-26T04:48:25.260Z,100603.70
2022-07-26T04:49:26.875Z,100598.27
2022-07-26T04:50:28.698Z,100591.51
2022-07-26T04:51:30.334Z,100593.16
2022-07-26T04:52:32.746Z,100595.76
2022-07-26T04:53:35.599Z,100604.18
2022-07-26T04:54:37.207Z,100605.02
2022-07-26T04:55:39.214Z,100609.48
2022-07-26T04:56:40.932Z,100614.29
2022-07-26T04:57:42.863Z,100615.14
2022-07-26T04:58:44.653Z,100612.19
2022-07-26T04:59:58.154Z,100616.50
2022-07-26T05:01:10.702Z,100606.48
2022-07-26T05:02:14.596Z,100608.34
2022-07-26T05:03:16.303Z,100613.69
2022-07-26T05:04:17.943Z,100606.54
2022-07-26T05:05:20.100Z,100604.58
2022-07-26T05:06:21.807Z,100601.31
2022-07-26T05:07:24.617Z,100600.43
2022-07-26T05:08:26.276Z,100603.14
2022-07-26T05:09:28.623Z,100606.27
2022-07-26T05:10:34.698Z,100610.54
2022-07-26T05:11:36.277Z,100610.23
2022-07-26T05:12:37.992Z,100607.33
2022-07-26T05:13:39.628Z,100606.40
2022-07-26T05:14:41.295Z,100602.80
2022-07-26T05:15:43.077Z,100600.08
2022-07-26T05:16:47.172Z,100601.34
2022-07-26T05:17:49.120Z,100604.77
2022-07-26T05:18:50.721Z,100604.11
2022-07-26T05:19:54.476Z,100605.81
2022-07-26T05:20:56.427Z,100605.48
2022-07-26T05:21:58.179Z,100607.07
2022-07-26T05:23:00.029Z,100608.55
2022-07-26T05:24:01.668Z,100610.19
2022-07-26T05:25:04.114Z,100616.48
2022-07-26T05:26:05.641Z,100616.95
2022-07-26T05:27:07.382Z,100606.84
2022-07-26T05:28:09.015Z,100607.85
2022-07-26T05:29:10.720Z,100605.75
2022-07-26T05:30:12.551Z,100610.61
2022-07-26T05:31:14.119Z,100626.22
2022-07-26T05:32:16.223Z,100629.48
2022-07-26T05:33:18.022Z,100632.25
2022-07-26T05:34:19.698Z,100633.56
2022-07-26T05:35:21.553Z,100635.95
2022-07-26T05:36:23.236Z,100639.00
2022-07-26T05:37:25.207Z,100644.23
2022-07-26T05:38:27.092Z,100648.38
2022-07-26T05:39:28.664Z,100649.30
2022-07-26T05:40:30.247Z,100646.52
2022-07-26T05:41:31.933Z,100640.48
2022-07-26T05:42:33.624Z,100640.86
2022-07-26T05:43:41.066Z,100633.83
2022-07-26T05:44:43.353Z,100633.01
2022-07-26T05:45:46.218Z,100632.14
2022-07-26T05:46:47.832Z,100634.41
2022-07-26T05:47:50.275Z,100632.03
2022-07-26T05:48:52.188Z,100637.38
2022-07-26T05:49:54.669Z,100641.58
2022-07-26T05:50:56.352Z,100647.67
2022-07-26T05:52:01.184Z,100646.96
2022-07-26T05:53:03.389Z,100646.73
2022-07-26T05:54:05.588Z,100652.21
2022-07-26T05:55:07.670Z,100655.58
2022-07-26T05:56:10.292Z,100663.53
2022-07-26T05:57:11.839Z,100665.82
2022-07-26T05:58:13.413Z,100662.82
2022-07-26T05:59:15.212Z,100661.73
2022-07-26T06:00:16.814Z,100662.85
2022-07-26T06:01:18.527Z,100664.30
2022-07-26T06:02:21.340Z,100663.44
2022-07-26T06:03:23.043Z,100660.81
2022-07-26T06:04:26.632Z,100666.68
2022-07-26T06:05:28.379Z,100663.73
2022-07-26T06:06:29.897Z,100669.83
2022-07-26T06:07:31.561Z,100669.84
2022-07-26T06:08:33.487Z,100670.33
2022-07-26T06:09:35.107Z,100665.30
2022-07-26T06:10:36.856Z,100659.29
2022-07-26T06:11:38.412Z,100655.50
2022-07-26T06:12:40.752Z,100650.25
2022-07-26T06:13:42.492Z,100655.45
2022-07-26T06:14:44.688Z,100653.78
2022-07-26T06:15:46.280Z,100655.06
2022-07-26T06:16:48.088Z,100659.11
2022-07-26T06:17:49.649Z,100659.02
2022-07-26T06:18:51.224Z,100663.91
2022-07-26T06:19:52.926Z,100664.14
2022-07-26T06:20:55.219Z,100663.90
2022-07-26T06:21:56.867Z,100664.66
2022-07-26T06:22:58.902Z,100664.73
2022-07-26T06:24:00.771Z,100665.09
2022-07-26T06:25:02.745Z,100664.34
2022-07-26T06:26:05.197Z,100659.66
2022-07-26T06:27:07.587Z,100652.45
2022-07-26T06:28:10.221Z,100645.13
2022-07-26T06:29:12.204Z,100642.49
2022-07-26T06:30:13.967Z,100638.20
2022-07-26T06:31:16.861Z,100641.11
2022-07-26T06:32:18.407Z,100639.36
2022-07-26T06:33:19.971Z,100649.62
2022-07-26T06:34:21.501Z,100654.75
2022-07-26T06:35:23.751Z,100658.03
2022-07-26T06:36:30.334Z,100661.78
2022-07-26T06:37:35.008Z,100664.31
2022-07-26T06:38:39.053Z,100669.48
2022-07-26T06:39:40.631Z,100676.94
2022-07-26T06:40:42.398Z,100681.73
2022-07-26T06:41:44.026Z,100689.94
2022-07-26T06:42:45.538Z,100694.78
2022-07-26T06:43:47.074Z,100691.73
2022-07-26T06:44:48.803Z,100692.05
2022-07-26T06:45:50.679Z,100690.65
2022-07-26T06:46:52.360Z,100693.54
2022-07-26T06:47:54.355Z,100695.48
2022-07-26T06:48:57.081Z,100698.58
2022-07-26T06:49:58.849Z,100693.13
2022-07-26T06:51:00.592Z,100694.95
2022-07-26T06:52:02.165Z,100699.78
2022-07-26T06:53:03.737Z,100706.34
2022-07-26T06:54:06.080Z,100719.10
2022-07-26T06:55:12.569Z,100726.20
2022-07-26T06:56:16.483Z,100729.70
2022-07-26T06:57:18.110Z,100728.20
2022-07-26T06:58:19.682Z,100728.25
2022-07-26T06:59:21.295Z,100727.58
2022-07-26T07:00:22.968Z,100725.66
2022-07-26T07:01:55.671Z,100725.44
2022-07-26T07:02:46.674Z,100726.13
2022-07-26T07:03:48.325Z,100726.45
2022-07-26T07:04:50.104Z,100721.89
2022-07-26T07:05:51.773Z,100709.30
2022-07-26T07:06:53.541Z,100705.10
2022-07-26T07:07:56.872Z,100702.44
2022-07-26T07:08:58.981Z,100696.83
2022-07-26T07:10:00.916Z,100696.34
2022-07-26T07:11:02.516Z,100698.74
2022-07-26T07:12:09.813Z,100705.06
2022-07-26T07:13:12.393Z,100710.71
2022-07-26T07:14:14.036Z,100712.68
2022-07-26T07:15:15.548Z,100718.13
2022-07-26T07:16:17.407Z,100722.23
2022-07-26T07:17:20.460Z,100728.86
2022-07-26T07:18:22.273Z,100729.18
2022-07-26T07:19:24.565Z,100730.22
2022-07-26T07:20:27.690Z,100734.76
2022-07-26T07:21:29.320Z,100736.33
2022-07-26T07:22:31.785Z,100734.98
2022-07-26T07:23:33.428Z,100734.48
2022-07-26T07:24:34.974Z,100735.20
2022-07-26T07:25:36.510Z,100730.78
2022-07-26T07:26:38.979Z,100731.49
2022-07-26T07:27:40.823Z,100735.64
2022-07-26T07:28:42.702Z,100748.23
2022-07-26T07:29:44.766Z,100744.74
2022-07-26T07:30:46.992Z,100748.51
2022-07-26T07:31:49.950Z,100748.67
2022-07-26T07:32:52.077Z,100744.42
2022-07-26T07:33:54.066Z,100740.69
2022-07-26T07:34:55.646Z,100741.40
2022-07-26T07:35:57.355Z,100741.02
2022-07-26T07:37:00.102Z,100741.17
2022-07-26T07:38:02.682Z,100744.02
2022-07-26T07:39:06.616Z,100744.61
2022-07-26T07:40:09.995Z,100743.30
2022-07-26T07:41:11.620Z,100745.56
2022-07-26T07:42:13.299Z,100745.18
2022-07-26T07:43:14.979Z,100743.69
2022-07-26T07:44:16.713Z,100744.55
2022-07-26T07:45:18.559Z,100743.56
2022-07-26T07:46:20.219Z,100749.05
2022-07-26T07:47:21.907Z,100753.88
2022-07-26T07:48:23.572Z,100760.83
2022-07-26T07:49:25.362Z,100760.27
2022-07-26T07:50:28.428Z,100758.58
2022-07-26T07:51:30.255Z,100753.86
2022-07-26T07:52:32.016Z,100751.77
2022-07-26T07:53:33.799Z,100746.58
2022-07-26T07:54:35.480Z,100740.52
2022-07-26T07:55:41.366Z,100732.06
2022-07-26T07:56:45.760Z,100735.03
2022-07-26T07:57:47.465Z,100731.19
2022-07-26T07:58:49.191Z,100734.51
2022-07-26T07:59:54.152Z,100737.86
2022-07-26T08:00:55.838Z,100742.02
2022-07-26T08:01:58.351Z,100742.21
2022-07-26T08:03:00.016Z,100739.80
2022-07-26T08:04:01.835Z,100739.58
2022-07-26T08:05:11.450Z,100738.45
2022-07-26T08:06:16.221Z,100741.41
2022-07-26T08:07:17.815Z,100741.07
2022-07-26T08:08:22.028Z,100744.20
2022-07-26T08:09:24.958Z,100746.70
2022-07-26T08:10:30.486Z,100748.81
2022-07-26T08:11:32.267Z,100757.73
2022-07-26T08:12:35.919Z,100761.23
2022-07-26T08:13:37.630Z,100759.89
2022-07-26T08:14:39.398Z,100766.74
2022-07-26T08:15:43.122Z,100765.51
2022-07-26T08:16:44.946Z,100760.11
2022-07-26T08:17:51.061Z,100761.72
2022-07-26T08:18:57.630Z,100754.06
2022-07-26T08:20:00.639Z,100753.48
2022-07-26T08:21:03.238Z,100751.29
2022-07-26T08:22:07.679Z,100750.77
2022-07-26T08:23:09.878Z,100756.04
2022-07-26T08:24:11.784Z,100755.02
2022-07-26T08:25:13.591Z,100757.13
2022-07-26T08:26:15.387Z,100759.58
2022-07-26T08:27:17.301Z,100760.63
2022-07-26T08:28:38.057Z,100758.33
2022-07-26T08:29:40.636Z,100758.21
2022-07-26T08:30:42.513Z,100761.90
2022-07-26T08:31:44.513Z,100758.56
2022-07-26T08:32:46.377Z,100763.57
2022-07-26T08:33:48.132Z,100768.34
2022-07-26T08:34:49.874Z,100770.66
2022-07-26T08:35:53.214Z,100771.07
2022-07-26T08:37:15.928Z,100774.16
2022-07-26T08:38:18.588Z,100766.23
2022-07-26T08:39:20.163Z,100763.87
2022-07-26T08:40:21.873Z,100763.73
2022-07-26T08:41:23.640Z,100764.08
2022-07-26T08:42:25.457Z,100761.10
2022-07-26T08:43:27.948Z,100761.10
2022-07-26T08:44:29.991Z,100761.02
2022-07-26T08:45:31.833Z,100757.29
2022-07-26T08:46:34.740Z,100759.38
2022-07-26T08:47:50.268Z,100759.48
2022-07-26T08:48:58.143Z,100757.27
2022-07-26T08:49:59.861Z,100756.16
2022-07-26T08:51:06.002Z,100751.30
2022-07-26T08:52:14.260Z,100750.73
2022-07-26T08:53:16.219Z,100754.06
2022-07-26T08:54:17.878Z,100754.44
2022-07-26T08:55:20.096Z,100753.16
2022-07-26T15:07:14.819Z,100861.71
2022-07-26T15:08:16.517Z,100855.65
2022-07-26T15:09:18.068Z,100856.36
2022-07-26T15:10:28.543Z,100855.16
2022-07-26T15:11:30.289Z,100856.09
2022-07-26T15:12:32.000Z,100858.33
2022-07-26T15:13:33.916Z,100859.27
2022-07-26T15:14:36.526Z,100856.08
2022-07-26T15:15:38.103Z,100859.72
2022-07-26T15:16:39.738Z,100861.65
2022-07-26T15:17:41.492Z,100866.10
2022-07-26T15:18:43.325Z,100869.28
2022-07-26T15:19:44.817Z,100870.28
2022-07-26T15:20:46.307Z,100871.83
2022-07-26T15:21:50.316Z,100870.39
2022-07-26T15:22:54.915Z,100866.58
2022-07-26T15:23:56.623Z,100868.92
2022-07-26T15:24:58.360Z,100870.70
2022-07-26T15:25:59.830Z,100869.49
2022-07-26T15:27:01.486Z,100869.16
2022-07-26T15:28:03.520Z,100872.52
2022-07-26T15:29:05.226Z,100870.83
2022-07-26T15:30:11.627Z,100870.40
2022-07-26T15:31:15.252Z,100874.86
2022-07-26T15:32:16.904Z,100876.63
2022-07-26T15:33:20.076Z,100874.80
2022-07-26T15:34:21.865Z,100880.84
2022-07-26T15:35:23.411Z,100885.17
2022-07-26T15:36:25.056Z,100886.90
2022-07-26T15:37:28.235Z,100884.58
2022-07-26T15:38:29.966Z,100888.90
2022-07-26T15:39:31.687Z,100885.78
2022-07-26T15:40:33.434Z,100888.55
2022-07-26T15:41:34.972Z,100887.53
2022-07-26T15:42:41.520Z,100891.23
2022-07-26T15:43:48.937Z,100888.75
2022-07-26T15:44:51.050Z,100890.73
2022-07-26T15:45:54.751Z,100890.27
2022-07-26T15:46:56.336Z,100888.73
2022-07-26T15:48:09.414Z,100887.48
2022-07-26T15:49:16.377Z,100888.35
2022-07-26T15:50:18.250Z,100891.10
2022-07-26T15:51:23.989Z,100892.09
2022-07-26T15:52:25.539Z,100889.80
2022-07-26T15:53:28.888Z,100892.45
2022-07-26T15:54:30.972Z,100892.34
2022-07-26T15:55:32.978Z,100887.58
2022-07-26T15:56:34.843Z,100893.86
2022-07-26T15:57:36.875Z,100891.67
2022-07-26T15:58:38.497Z,100898.13
2022-07-26T15:59:40.699Z,100892.20
2022-07-26T16:00:42.412Z,100893.36
2022-07-26T16:01:43.948Z,100894.95
2022-07-26T16:02:45.561Z,100889.77
2022-07-26T16:03:47.290Z,100894.76
2022-07-26T16:04:48.972Z,100891.48
2022-07-26T16:05:50.655Z,100889.17
2022-07-26T16:06:52.194Z,100890.84
2022-07-26T16:07:53.761Z,100892.48
2022-07-26T16:09:15.109Z,100894.30
2022-07-26T16:10:17.103Z,100894.98
2022-07-26T16:11:18.829Z,100895.09
2022-07-26T16:12:20.546Z,100898.23
2022-07-26T16:13:22.104Z,100901.70
2022-07-26T16:14:23.618Z,100900.82
2022-07-26T16:15:25.401Z,100902.23
2022-07-26T16:16:27.072Z,100903.04
2022-07-26T16:17:28.616Z,100899.42
2022-07-26T16:18:30.075Z,100897.03
2022-07-26T16:19:31.641Z,100902.46
2022-07-26T16:20:33.785Z,100903.56
2022-07-26T16:21:36.452Z,100901.21
2022-07-26T16:22:41.271Z,100898.01
2022-07-26T16:23:42.939Z,100900.78
2022-07-26T16:24:44.510Z,100897.48
2022-07-26T16:25:46.143Z,100899.47
2022-07-26T16:26:47.915Z,100894.94
2022-07-26T16:27:50.020Z,100898.65
2022-07-26T16:28:52.513Z,100901.80
2022-07-26T16:29:54.280Z,100899.46
2022-07-26T16:30:56.012Z,100905.14
2022-07-26T16:31:57.904Z,100900.14
2022-07-26T16:32:59.454Z,100894.36
2022-07-26T16:34:01.053Z,100899.81
2022-07-26T16:35:03.310Z,100906.67
2022-07-26T16:36:06.462Z,100905.23
2022-07-26T16:37:08.520Z,100904.63
2022-07-26T16:38:10.114Z,100904.56
2022-07-26T16:39:12.496Z,100905.46
2022-07-26T16:40:14.471Z,100911.83
2022-07-26T16:41:16.786Z,100913.52
2022-07-26T16:42:18.428Z,100915.08
2022-07-26T16:43:19.970Z,100914.69
2022-07-26T16:44:23.388Z,100919.93
2022-07-26T16:45:25.029Z,100916.60
2022-07-26T16:46:26.887Z,100915.30
2022-07-26T16:47:28.718Z,100916.90
2022-07-26T16:48:30.319Z,100918.81
2022-07-26T16:49:32.037Z,100919.61
2022-07-26T16:50:33.787Z,100921.25
2022-07-26T16:51:35.811Z,100926.82
2022-07-26T16:52:37.507Z,100923.67
2022-07-26T16:53:39.903Z,100927.39
2022-07-26T16:54:41.557Z,100928.58
2022-07-26T16:55:44.649Z,100928.77
2022-07-26T16:56:46.383Z,100926.61
2022-07-26T16:57:48.176Z,100929.45
2022-07-26T16:58:49.721Z,100931.60
2022-07-26T16:59:51.355Z,100931.81
2022-07-26T17:00:53.045Z,100938.20
2022-07-26T17:01:54.918Z,100938.02
2022-07-26T17:02:56.785Z,100943.46
2022-07-26T17:03:58.597Z,100941.27
2022-07-26T17:05:00.690Z,100944.86
2022-07-26T17:06:06.785Z,100947.77
2022-07-26T17:07:24.427Z,100952.52
2022-07-26T17:08:27.500Z,100952.73
2022-07-26T17:09:29.104Z,100955.63
2022-07-26T17:10:30.667Z,100954.29
2022-07-26T17:11:32.355Z,100956.92
2022-07-26T17:12:35.009Z,100954.91
2022-07-26T17:13:36.748Z,100960.80
2022-07-26T17:14:38.343Z,100960.25
2022-07-26T17:15:39.928Z,100968.96
2022-07-26T17:16:41.509Z,100967.80
2022-07-26T17:17:48.390Z,100966.50
2022-07-26T17:18:50.533Z,100968.77
2022-07-26T17:19:52.278Z,100970.61
2022-07-26T17:20:53.966Z,100973.66
2022-07-26T17:21:55.631Z,100973.86
2022-07-26T17:22:57.466Z,100974.21
2022-07-26T17:24:03.854Z,100975.31
2022-07-26T17:25:07.338Z,100975.36
2022-07-26T17:26:09.024Z,100976.74
2022-07-26T17:27:10.592Z,100977.56
2022-07-26T17:28:12.588Z,100978.88
2022-07-26T17:29:14.653Z,100979.15
2022-07-26T17:30:16.426Z,100980.48
2022-07-26T17:31:18.089Z,100979.20
2022-07-26T17:32:19.727Z,100985.45
2022-07-26T17:33:21.573Z,100980.46
2022-07-26T17:34:23.393Z,100985.20
2022-07-26T17:35:25.028Z,100981.58
2022-07-26T17:36:27.581Z,100985.40
2022-07-26T17:37:29.237Z,100981.23
2022-07-26T17:38:31.040Z,100984.72
2022-07-26T17:39:52.353Z,100988.27
2022-07-26T17:40:54.587Z,100988.14
2022-07-26T17:41:56.407Z,100982.71
2022-07-26T17:42:57.960Z,100987.44
2022-07-26T17:44:01.983Z,100989.27
2022-07-26T17:45:05.029Z,100990.42
2022-07-26T17:46:06.737Z,100989.70
2022-07-26T17:47:27.704Z,100991.52
2022-07-26T17:48:30.006Z,100988.35
2022-07-26T17:49:31.950Z,100990.75
2022-07-26T17:50:36.889Z,100994.38
2022-07-26T17:51:39.702Z,100994.30
2022-07-26T17:52:41.425Z,100993.30
2022-07-26T17:53:43.723Z,100994.49
2022-07-26T17:54:45.305Z,100992.81
2022-07-26T17:55:46.999Z,100992.82
2022-07-26T17:56:48.551Z,100990.39
2022-07-26T17:57:50.468Z,100997.16
2022-07-26T17:58:52.056Z,100993.42
2022-07-26T17:59:53.846Z,100994.83
2022-07-26T18:00:55.481Z,100995.85
2022-07-26T18:01:57.157Z,100992.45
2022-07-26T18:02:58.742Z,100997.67
2022-07-26T18:04:00.382Z,101000.66
2022-07-26T18:05:02.822Z,101004.39
2022-07-26T18:06:05.882Z,100997.98
2022-07-26T18:07:07.862Z,101003.52